createdAt,value
2023-01-19T00:08:36.395Z,14.00
2023-01-19T00:18:39.465Z,14.23
2023-01-19T00:28:44.901Z,15.77
2023-01-19T00:38:49.602Z,11.13
2023-01-19T00:48:55.721Z,14.57
2023-01-19T00:58:59.078Z,13.60
2023-01-19T01:09:12.176Z,13.83
2023-01-19T01:19:16.010Z,11.33
2023-01-19T01:29:20.467Z,13.30
2023-01-19T01:39:23.439Z,13.30
2023-01-19T01:49:27.996Z,11.63
2023-01-19T01:59:40.054Z,7.30
2023-01-19T02:10:02.428Z,6.97
2023-01-19T02:20:06.418Z,6.00
2023-01-19T02:30:14.013Z,7.40
2023-01-19T02:40:20.975Z,7.00
2023-01-19T02:50:46.125Z,6.70
2023-01-19T03:00:57.386Z,5.77
2023-01-19T03:11:04.319Z,9.20
2023-01-19T03:21:13.258Z,7.47
2023-01-19T03:31:21.300Z,10.77
2023-01-19T03:41:27.398Z,9.57
2023-01-19T03:51:31.790Z,12.67
2023-01-19T04:01:35.100Z,9.23
2023-01-19T04:11:40.707Z,8.40
2023-01-19T04:21:43.701Z,8.17
2023-01-19T04:31:47.926Z,13.13
2023-01-19T04:41:53.003Z,9.43
2023-01-19T04:52:01.781Z,6.77
2023-01-19T05:02:06.128Z,9.40
2023-01-19T05:12:13.537Z,8.03
2023-01-19T05:22:17.231Z,9.00
2023-01-19T05:32:21.732Z,10.57
2023-01-19T05:42:25.076Z,9.53
2023-01-19T05:52:29.660Z,6.23
2023-01-19T06:02:32.933Z,8.53
2023-01-19T06:12:37.370Z,6.43
2023-01-19T06:22:40.289Z,7.63
2023-01-19T06:32:44.819Z,8.03
2023-01-19T06:42:49.739Z,7.00
2023-01-19T06:53:22.407Z,10.33
2023-01-19T07:03:29.227Z,12.70
2023-01-19T07:13:34.336Z,12.90
2023-01-19T07:23:39.007Z,13.07
2023-01-19T07:33:43.267Z,10.00
2023-01-19T07:43:46.305Z,18.40
2023-01-19T07:53:52.427Z,22.17
2023-01-19T08:03:55.603Z,28.17
2023-01-19T08:14:00.623Z,16.23
2023-01-19T08:24:04.377Z,16.33
2023-01-19T08:34:10.544Z,16.43
2023-01-19T08:44:15.862Z,23.90
2023-01-19T08:54:21.988Z,15.13
2023-01-19T09:04:25.817Z,15.63
2023-01-19T09:14:30.373Z,22.63
2023-01-19T09:24:35.443Z,16.53
2023-01-19T09:34:39.868Z,15.30
2023-01-19T09:44:46.091Z,19.53
2023-01-19T09:54:58.937Z,21.73
2023-01-19T10:05:27.955Z,21.37
2023-01-19T10:15:43.652Z,17.57
2023-01-19T10:25:48.421Z,18.40
2023-01-19T10:35:53.053Z,24.03
2023-01-19T10:46:32.486Z,22.23
2023-01-19T10:56:40.085Z,21.77
2023-01-19T11:06:44.335Z,20.77
2023-01-19T11:16:55.165Z,21.03
2023-01-19T11:27:03.200Z,24.73
2023-01-19T11:47:36.885Z,18.00
2023-01-19T11:57:47.634Z,29.60
2023-01-19T12:18:00.628Z,16.80
2023-01-19T12:28:05.161Z,19.00
2023-01-19T12:38:32.024Z,12.07
2023-01-19T12:48:35.784Z,19.13
2023-01-19T12:58:40.384Z,13.90
2023-01-19T13:09:01.431Z,12.97
2023-01-19T13:19:22.916Z,16.63
2023-01-19T13:29:31.153Z,16.07
2023-01-19T13:39:42.352Z,20.17
2023-01-19T13:50:23.944Z,9.60
2023-01-19T14:00:31.065Z,15.73
2023-01-19T14:10:36.501Z,12.83
2023-01-19T14:20:48.437Z,11.60
2023-01-19T14:30:55.780Z,12.07
2023-01-19T14:41:03.924Z,10.30
2023-01-19T14:51:09.346Z,10.87
2023-01-19T15:01:15.188Z,12.33
2023-01-19T15:11:27.857Z,13.77
2023-01-19T15:21:32.498Z,9.67
2023-01-19T15:31:37.209Z,9.03
2023-01-19T15:42:33.496Z,16.30
2023-01-19T15:52:39.093Z,9.27
2023-01-19T16:02:44.637Z,6.37
2023-01-19T16:12:49.256Z,10.53
2023-01-19T16:22:56.474Z,5.30
2023-01-19T16:33:00.365Z,9.53
2023-01-19T16:43:05.232Z,10.70
2023-01-19T16:53:08.374Z,8.80
2023-01-19T17:03:14.165Z,8.13
2023-01-19T17:13:17.464Z,13.57
2023-01-19T17:23:22.269Z,10.60
2023-01-19T17:33:25.659Z,17.23
2023-01-19T17:43:30.998Z,15.50
2023-01-19T17:53:54.837Z,14.00
2023-01-19T18:03:59.915Z,8.93
2023-01-19T18:14:03.510Z,10.97
2023-01-19T18:24:08.932Z,9.40
2023-01-19T18:34:11.932Z,8.40
2023-01-19T18:44:16.454Z,11.17
2023-01-19T18:54:21.044Z,10.47
2023-01-19T19:04:25.832Z,7.93
2023-01-19T19:14:29.073Z,9.73
2023-01-19T19:24:33.469Z,8.83
2023-01-19T19:34:36.824Z,10.67
2023-01-19T19:44:41.964Z,19.50
2023-01-19T19:54:45.668Z,10.17
2023-01-19T20:04:50.775Z,15.87
2023-01-19T20:15:24.961Z,11.93
2023-01-19T20:25:29.986Z,15.03
2023-01-19T20:35:33.894Z,11.93
2023-01-19T20:45:38.362Z,13.60
2023-01-19T20:55:42.469Z,18.10
2023-01-19T21:05:49.420Z,12.27
2023-01-19T21:15:52.620Z,11.17
2023-01-19T21:25:59.758Z,15.63
2023-01-19T21:36:03.416Z,15.33
2023-01-19T21:46:12.736Z,11.67
2023-01-19T21:56:17.314Z,13.77
2023-01-19T22:06:22.303Z,20.93
2023-01-19T22:16:26.958Z,11.47
2023-01-19T22:37:02.931Z,9.03
2023-01-19T22:47:07.425Z,9.97
2023-01-19T22:57:12.027Z,11.20
2023-01-19T23:07:16.450Z,9.23
2023-01-19T23:17:19.702Z,9.23
2023-01-19T23:27:24.119Z,12.17
2023-01-19T23:37:27.546Z,11.50
2023-01-19T23:47:31.832Z,11.83
2023-01-19T23:57:34.589Z,8.67
